createdAt,value
2022-10-05T00:01:00.899Z,99753.60
2022-10-05T00:03:37.208Z,99755.40
2022-10-05T00:06:05.416Z,99750.80
2022-10-05T00:08:36.235Z,99746.00
2022-10-05T00:11:09.145Z,99741.20
2022-10-05T00:13:36.764Z,99740.00
2022-10-05T00:16:20.512Z,99739.20
2022-10-05T00:18:53.630Z,99731.00
2022-10-05T00:21:28.233Z,99719.40
2022-10-05T00:23:58.108Z,99719.60
2022-10-05T00:26:32.064Z,99712.80
2022-10-05T00:29:06.820Z,99708.60
2022-10-05T00:31:36.355Z,99702.80
2022-10-05T00:34:04.072Z,99696.40
2022-10-05T00:36:31.669Z,99687.60
2022-10-05T00:39:02.234Z,99687.20
2022-10-05T00:42:26.608Z,99684.60
2022-10-05T00:45:01.241Z,99677.00
2022-10-05T00:48:21.564Z,99681.60
2022-10-05T00:51:31.222Z,99680.40
2022-10-05T00:54:18.394Z,99674.20
2022-10-05T00:56:59.223Z,99671.20
2022-10-05T01:00:00.157Z,99673.80
2022-10-05T01:03:15.368Z,99668.60
2022-10-05T01:06:17.302Z,99673.80
2022-10-05T01:09:06.083Z,99679.40
2022-10-05T01:11:58.819Z,99681.20
2022-10-05T01:14:34.771Z,99681.40
2022-10-05T01:17:26.348Z,99690.20
2022-10-05T01:20:28.158Z,99688.60
2022-10-05T01:23:34.226Z,99686.80
2022-10-05T01:26:58.992Z,99680.00
2022-10-05T01:29:53.604Z,99666.60
2022-10-05T01:32:55.744Z,99677.80
2022-10-05T01:36:11.037Z,99666.80
2022-10-05T01:39:37.724Z,99659.00
2022-10-05T01:42:26.560Z,99653.40
2022-10-05T01:45:08.385Z,99641.20
2022-10-05T01:47:49.841Z,99634.80
2022-10-05T01:51:05.272Z,99633.60
2022-10-05T01:53:51.616Z,99627.00
2022-10-05T01:56:36.962Z,99632.00
2022-10-05T01:59:19.759Z,99635.80
2022-10-05T02:02:07.990Z,99639.20
2022-10-05T02:05:02.140Z,99645.60
2022-10-05T02:07:40.287Z,99645.00
2022-10-05T02:10:19.055Z,99650.40
2022-10-05T02:12:53.425Z,99650.20
2022-10-05T02:15:31.535Z,99655.60
2022-10-05T02:18:14.712Z,99648.40
2022-10-05T02:20:44.841Z,99648.20
2022-10-05T02:23:23.314Z,99657.20
2022-10-05T02:25:54.492Z,99662.60
2022-10-05T02:28:37.752Z,99654.20
2022-10-05T02:31:18.213Z,99656.40
2022-10-05T02:33:45.858Z,99653.20
2022-10-05T02:36:19.976Z,99651.80
2022-10-05T02:38:55.962Z,99656.00
2022-10-05T02:42:18.915Z,99654.00
2022-10-05T02:45:06.822Z,99655.20
2022-10-05T02:48:05.959Z,99661.00
2022-10-05T02:50:52.679Z,99671.20
2022-10-05T02:53:42.350Z,99692.40
2022-10-05T02:56:34.861Z,99710.20
2022-10-05T02:59:33.067Z,99712.20
2022-10-05T03:02:22.871Z,99701.00
2022-10-05T03:05:18.892Z,99696.00
2022-10-05T03:08:03.619Z,99684.60
2022-10-05T03:10:50.647Z,99678.80
2022-10-05T03:14:04.157Z,99681.60
2022-10-05T03:17:22.644Z,99673.20
2022-10-05T03:20:12.041Z,99650.60
2022-10-05T03:23:00.644Z,99642.60
2022-10-05T03:26:25.715Z,99628.20
2022-10-05T03:29:44.752Z,99629.40
2022-10-05T03:32:46.383Z,99634.60
2022-10-05T03:35:29.096Z,99626.20
2022-10-05T03:38:23.379Z,99624.40
2022-10-05T03:41:04.628Z,99616.80
2022-10-05T03:44:15.761Z,99618.60
2022-10-05T03:47:06.341Z,99625.20
2022-10-05T03:49:59.020Z,99632.20
2022-10-05T03:52:42.785Z,99639.00
2022-10-05T03:56:03.352Z,99645.00
2022-10-05T03:58:51.464Z,99653.40
2022-10-05T04:01:25.858Z,99660.60
2022-10-05T04:04:04.032Z,99656.80
2022-10-05T04:06:39.236Z,99649.00
2022-10-05T04:09:52.772Z,99637.60
2022-10-05T04:12:35.568Z,99627.60
2022-10-05T04:15:22.833Z,99613.80
2022-10-05T04:18:01.938Z,99615.20
2022-10-05T04:20:40.005Z,99612.00
2022-10-05T04:23:10.291Z,99610.80
2022-10-05T04:25:54.084Z,99599.80
2022-10-05T04:29:03.652Z,99599.40
2022-10-05T04:31:57.185Z,99610.40
2022-10-05T04:34:33.625Z,99615.80
2022-10-05T04:37:10.661Z,99613.40
2022-10-05T04:40:06.088Z,99620.00
2022-10-05T04:42:56.082Z,99623.00
2022-10-05T04:45:58.470Z,99626.60
2022-10-05T04:48:51.976Z,99624.20
2022-10-05T04:52:03.943Z,99629.40
2022-10-05T04:55:26.456Z,99634.20
2022-10-05T04:58:15.504Z,99629.60
2022-10-05T05:01:46.872Z,99625.20
2022-10-05T05:04:29.721Z,99620.40
2022-10-05T05:07:47.961Z,99619.60
2022-10-05T05:10:31.375Z,99611.60
2022-10-05T05:13:23.989Z,99604.40
2022-10-05T05:16:12.855Z,99618.40
2022-10-05T05:19:18.541Z,99615.20
2022-10-05T05:22:17.236Z,99631.20
2022-10-05T05:25:42.510Z,99641.00
2022-10-05T05:28:51.190Z,99632.00
2022-10-05T05:31:33.350Z,99624.60
2022-10-05T05:34:48.558Z,99624.60
2022-10-05T05:37:46.638Z,99631.00
2022-10-05T05:40:23.593Z,99631.20
2022-10-05T05:43:03.286Z,99631.00
2022-10-05T05:45:58.734Z,99623.80
2022-10-05T05:48:41.628Z,99624.00
2022-10-05T05:51:27.760Z,99614.00
2022-10-05T05:54:16.835Z,99615.80
2022-10-05T05:57:01.034Z,99620.20
2022-10-05T06:00:00.635Z,99618.40
2022-10-05T06:02:40.749Z,99619.40
2022-10-05T06:05:44.380Z,99618.60
2022-10-05T06:08:29.354Z,99624.40
2022-10-05T06:11:05.325Z,99632.20
2022-10-05T06:13:42.100Z,99633.60
2022-10-05T06:16:46.420Z,99639.20
2022-10-05T06:19:19.667Z,99633.80
2022-10-05T06:22:07.783Z,99635.80
2022-10-05T06:25:15.776Z,99629.40
2022-10-05T06:28:13.773Z,99625.00
2022-10-05T06:31:02.893Z,99625.60
2022-10-05T06:33:43.605Z,99617.20
2022-10-05T06:36:43.350Z,99616.00
2022-10-05T06:39:36.539Z,99606.80
2022-10-05T06:42:58.736Z,99602.00
2022-10-05T06:46:23.433Z,99602.80
2022-10-05T06:49:09.305Z,99595.20
2022-10-05T06:51:52.781Z,99597.60
2022-10-05T06:54:52.609Z,99604.00
2022-10-05T06:58:09.899Z,99606.20
2022-10-05T07:00:50.494Z,99614.20
2022-10-05T07:03:37.737Z,99618.80
2022-10-05T07:06:21.285Z,99614.80
2022-10-05T07:09:07.348Z,99621.00
2022-10-05T07:12:15.859Z,99619.40
2022-10-05T07:15:16.484Z,99614.60
2022-10-05T07:18:06.551Z,99617.80
2022-10-05T07:21:00.379Z,99623.00
2022-10-05T07:23:48.226Z,99626.20
2022-10-05T07:26:46.754Z,99626.20
2022-10-05T07:29:31.349Z,99626.80
2022-10-05T07:32:49.061Z,99623.00
2022-10-05T07:36:18.761Z,99618.60
2022-10-05T07:39:59.093Z,99621.00
2022-10-05T07:43:14.463Z,99628.20
2022-10-05T07:46:12.852Z,99627.80
2022-10-05T07:49:05.487Z,99637.80
2022-10-05T07:51:41.261Z,99642.40
2022-10-05T07:54:23.536Z,99645.20
2022-10-05T07:57:24.360Z,99642.20
2022-10-05T08:00:10.838Z,99643.40
2022-10-05T08:02:49.282Z,99635.80
2022-10-05T08:05:19.871Z,99642.40
2022-10-05T08:07:53.757Z,99652.00
2022-10-05T08:10:55.210Z,99636.80
2022-10-05T08:13:50.250Z,99630.80
2022-10-05T08:16:19.759Z,99632.60
2022-10-05T08:19:11.031Z,99632.60
2022-10-05T08:21:45.518Z,99621.60
2022-10-05T08:24:40.735Z,99629.40
2022-10-05T08:27:44.855Z,99639.80
2022-10-05T08:30:16.222Z,99640.40
2022-10-05T08:33:02.700Z,99633.40
2022-10-05T08:35:39.225Z,99641.00
2022-10-05T08:38:32.855Z,99642.40
2022-10-05T08:41:45.323Z,99648.20
2022-10-05T08:44:55.112Z,99646.00
2022-10-05T08:48:04.766Z,99639.60
2022-10-05T08:51:04.340Z,99632.20
2022-10-05T08:53:52.851Z,99625.00
2022-10-05T08:56:43.622Z,99634.20
2022-10-05T09:00:02.682Z,99628.80
2022-10-05T09:02:58.041Z,99629.60
2022-10-05T09:06:14.529Z,99628.20
2022-10-05T09:09:23.436Z,99627.40
2022-10-05T09:12:08.279Z,99627.40
2022-10-05T09:15:24.947Z,99628.60
2022-10-05T09:18:38.816Z,99619.40
2022-10-05T09:21:19.713Z,99620.80
2022-10-05T09:24:06.364Z,99621.60
2022-10-05T09:26:58.271Z,99613.60
2022-10-05T09:30:06.885Z,99618.00
2022-10-05T09:32:51.743Z,99628.40
2022-10-05T09:35:40.595Z,99628.60
2022-10-05T09:38:50.895Z,99628.40
2022-10-05T09:42:10.425Z,99626.40
2022-10-05T09:45:31.324Z,99631.40
2022-10-05T09:48:44.161Z,99636.20
2022-10-05T09:51:49.670Z,99644.00
2022-10-05T09:54:51.703Z,99643.40
2022-10-05T09:57:52.444Z,99645.60
2022-10-05T10:01:09.136Z,99642.00
2022-10-05T10:04:40.401Z,99642.00
2022-10-05T10:08:00.936Z,99646.00
2022-10-05T10:11:09.808Z,99639.00
2022-10-05T10:14:02.277Z,99632.40
2022-10-05T10:17:06.851Z,99624.00
2022-10-05T10:20:32.923Z,99624.20
2022-10-05T10:24:00.710Z,99624.00
2022-10-05T10:27:22.249Z,99618.60
2022-10-05T10:30:08.190Z,99619.00
2022-10-05T10:33:33.684Z,99620.40
2022-10-05T10:36:16.194Z,99622.60
2022-10-05T10:39:29.075Z,99623.00
2022-10-05T10:42:26.060Z,99624.60
2022-10-05T10:45:22.980Z,99621.80
2022-10-05T10:48:11.383Z,99626.20
2022-10-05T10:51:04.528Z,99624.00
2022-10-05T10:54:12.369Z,99627.20
2022-10-05T10:57:05.985Z,99624.20
2022-10-05T11:00:08.204Z,99623.00
2022-10-05T11:03:08.448Z,99615.00
2022-10-05T11:05:57.168Z,99627.00
2022-10-05T11:08:58.960Z,99622.00
2022-10-05T11:11:51.411Z,99626.40
2022-10-05T11:14:43.971Z,99628.80
2022-10-05T11:17:56.029Z,99633.60
2022-10-05T11:20:48.516Z,99630.40
2022-10-05T11:23:42.356Z,99630.00
2022-10-05T11:26:37.850Z,99615.60
2022-10-05T11:29:47.702Z,99607.60
2022-10-05T11:33:01.908Z,99598.00
2022-10-05T11:35:47.401Z,99591.20
2022-10-05T11:38:50.357Z,99590.20
2022-10-05T11:41:43.970Z,99596.80
2022-10-05T11:44:48.845Z,99588.20
2022-10-05T11:47:26.461Z,99584.40
2022-10-05T11:50:27.212Z,99575.80
2022-10-05T11:53:05.661Z,99573.60
2022-10-05T11:56:18.893Z,99565.20
2022-10-05T11:59:06.877Z,99570.20
2022-10-05T12:02:19.546Z,99572.00
2022-10-05T12:05:21.225Z,99571.40
2022-10-05T12:08:20.384Z,99565.80
2022-10-05T12:11:14.096Z,99564.00
2022-10-05T12:14:04.623Z,99562.20
2022-10-05T12:16:41.852Z,99560.40
2022-10-05T12:19:27.251Z,99556.00
2022-10-05T12:22:21.299Z,99552.20
2022-10-05T12:25:29.993Z,99549.60
2022-10-05T12:28:06.017Z,99549.20
2022-10-05T12:30:52.558Z,99550.60
2022-10-05T12:33:24.104Z,99555.80
2022-10-05T12:36:02.269Z,99561.20
2022-10-05T12:38:58.777Z,99555.40
2022-10-05T12:41:41.587Z,99558.00
2022-10-05T12:44:31.631Z,99567.00
2022-10-05T12:48:10.644Z,99566.40
2022-10-05T12:50:46.878Z,99558.60
2022-10-05T12:53:52.400Z,99546.00
2022-10-05T12:57:05.882Z,99547.80
2022-10-05T12:59:54.054Z,99545.60
2022-10-05T13:02:39.211Z,99549.40
2022-10-05T13:05:09.730Z,99546.60
2022-10-05T13:07:46.370Z,99536.00
2022-10-05T13:10:42.630Z,99534.40
2022-10-05T13:13:42.180Z,99528.00
2022-10-05T13:16:35.841Z,99522.00
2022-10-05T13:19:07.507Z,99522.00
2022-10-05T13:22:04.449Z,99515.20
2022-10-05T13:24:40.868Z,99522.20
2022-10-05T13:27:34.985Z,99521.80
2022-10-05T13:30:15.808Z,99521.00
2022-10-05T13:32:58.411Z,99525.60
2022-10-05T13:36:07.491Z,99522.00
2022-10-05T13:39:27.865Z,99518.80
2022-10-05T13:42:09.873Z,99522.80
2022-10-05T13:45:12.911Z,99511.00
2022-10-05T13:47:52.464Z,99516.20
2022-10-05T13:50:33.606Z,99511.20
2022-10-05T13:53:23.806Z,99509.60
2022-10-05T13:56:20.769Z,99514.40
2022-10-05T13:59:05.060Z,99511.40
2022-10-05T14:01:43.326Z,99516.00
2022-10-05T14:04:19.172Z,99514.80
2022-10-05T14:06:49.280Z,99518.20
2022-10-05T14:09:19.866Z,99518.80
2022-10-05T14:11:53.660Z,99514.00
2022-10-05T14:14:28.348Z,99513.00
2022-10-05T14:17:05.742Z,99512.00
2022-10-05T14:19:51.888Z,99510.20
2022-10-05T14:22:27.231Z,99505.40
2022-10-05T14:25:09.207Z,99510.00
2022-10-05T14:28:29.519Z,99507.00
2022-10-05T14:31:06.224Z,99507.00
2022-10-05T14:33:36.259Z,99501.40
2022-10-05T14:36:12.435Z,99503.80
2022-10-05T14:39:02.145Z,99493.00
2022-10-05T14:41:37.540Z,99491.60
2022-10-05T14:44:10.832Z,99488.60
2022-10-05T14:46:49.044Z,99490.40
2022-10-05T14:49:37.387Z,99492.80
2022-10-05T14:52:32.549Z,99490.20
2022-10-05T14:55:30.888Z,99498.00
2022-10-05T14:58:18.912Z,99490.40
2022-10-05T15:01:22.511Z,99486.80
2022-10-05T15:04:42.970Z,99482.40
2022-10-05T15:07:37.528Z,99478.40
2022-10-05T15:10:40.606Z,99488.00
2022-10-05T15:13:25.672Z,99486.20
2022-10-05T15:16:17.299Z,99482.60
2022-10-05T15:19:30.323Z,99480.80
2022-10-05T15:22:26.615Z,99481.20
2022-10-05T15:25:15.173Z,99474.80
2022-10-05T15:28:23.093Z,99476.60
2022-10-05T15:31:32.732Z,99476.20
2022-10-05T15:34:10.435Z,99470.40
2022-10-05T15:37:01.243Z,99467.20
2022-10-05T15:39:49.328Z,99470.20
2022-10-05T15:42:30.279Z,99475.20
2022-10-05T15:45:32.574Z,99472.00
2022-10-05T15:48:17.534Z,99470.60
2022-10-05T15:51:16.083Z,99476.60
2022-10-05T15:54:36.659Z,99471.00
2022-10-05T15:57:41.760Z,99469.60
2022-10-05T16:00:18.851Z,99472.20
2022-10-05T16:03:25.054Z,99474.00
2022-10-05T16:06:39.829Z,99471.80
2022-10-05T16:09:43.804Z,99470.00
2022-10-05T16:12:29.612Z,99465.60
2022-10-05T16:15:48.603Z,99456.60
2022-10-05T16:18:43.429Z,99453.00
2022-10-05T16:22:00.623Z,99457.40
2022-10-05T16:24:58.000Z,99460.00
2022-10-05T16:28:06.231Z,99458.60
2022-10-05T16:31:06.666Z,99458.80
2022-10-05T16:34:02.273Z,99461.20
2022-10-05T16:37:14.826Z,99466.20
2022-10-05T16:40:16.907Z,99467.00
2022-10-05T16:43:34.754Z,99465.20
2022-10-05T16:46:35.446Z,99464.00
2022-10-05T16:49:38.741Z,99453.40
2022-10-05T16:52:18.218Z,99456.80
2022-10-05T16:54:56.073Z,99461.60
2022-10-05T16:57:41.288Z,99463.00
2022-10-05T17:00:26.966Z,99467.40
2022-10-05T17:03:11.229Z,99466.60
2022-10-05T17:06:18.992Z,99464.40
2022-10-05T17:09:30.404Z,99468.60
2022-10-05T17:12:53.321Z,99469.00
2022-10-05T17:15:49.956Z,99465.40
2022-10-05T17:19:01.077Z,99462.40
2022-10-05T17:21:44.792Z,99459.60
2022-10-05T17:24:12.296Z,99462.80
2022-10-05T17:26:46.000Z,99467.40
2022-10-05T17:29:51.803Z,99478.40
2022-10-05T17:32:19.423Z,99482.20
2022-10-05T17:35:00.464Z,99483.60
2022-10-05T17:37:28.038Z,99476.00
2022-10-05T17:39:59.215Z,99468.80
2022-10-05T17:42:26.813Z,99474.00
2022-10-05T17:45:02.561Z,99473.20
2022-10-05T17:48:03.687Z,99472.60
2022-10-05T17:51:07.093Z,99472.40
2022-10-05T17:53:56.474Z,99465.20
2022-10-05T17:56:24.504Z,99458.00
2022-10-05T17:58:55.007Z,99465.20
2022-10-05T18:01:38.690Z,99469.00
2022-10-05T18:04:12.352Z,99470.20
2022-10-05T18:06:52.628Z,99474.00
2022-10-05T18:09:23.169Z,99477.80
2022-10-05T18:12:16.193Z,99480.80
2022-10-05T18:15:00.670Z,99480.60
2022-10-05T18:18:23.011Z,99474.20
2022-10-05T18:21:15.313Z,99470.40
2022-10-05T18:24:13.537Z,99472.20
2022-10-05T18:27:04.393Z,99469.20
2022-10-05T18:30:08.757Z,99475.20
2022-10-05T18:33:00.842Z,99479.40
2022-10-05T18:36:03.497Z,99477.20
2022-10-05T18:39:10.101Z,99466.80
2022-10-05T18:42:00.390Z,99467.80
2022-10-05T18:44:44.166Z,99469.20
2022-10-05T18:47:39.922Z,99467.00
2022-10-05T18:50:50.745Z,99465.80
2022-10-05T18:53:33.275Z,99468.80
2022-10-05T18:56:28.196Z,99471.00
2022-10-05T18:59:36.741Z,99465.60
2022-10-05T19:02:26.200Z,99465.40
2022-10-05T19:05:47.934Z,99464.00
2022-10-05T19:09:03.897Z,99465.20
2022-10-05T19:11:57.127Z,99465.40
2022-10-05T19:14:53.093Z,99462.20
2022-10-05T19:17:29.066Z,99465.80
2022-10-05T19:20:26.415Z,99462.60
2022-10-05T19:23:09.455Z,99468.60
2022-10-05T19:25:46.228Z,99470.80
2022-10-05T19:28:28.319Z,99469.80
2022-10-05T19:31:24.778Z,99467.60
2022-10-05T19:34:25.824Z,99470.40
2022-10-05T19:37:22.684Z,99476.60
2022-10-05T19:39:58.787Z,99470.00
2022-10-05T19:43:16.093Z,99468.60
2022-10-05T19:46:00.003Z,99468.20
2022-10-05T19:48:44.533Z,99477.40
2022-10-05T19:51:36.977Z,99465.20
2022-10-05T19:54:26.789Z,99467.00
2022-10-05T19:56:55.814Z,99468.20
2022-10-05T19:59:31.376Z,99469.00
2022-10-05T20:01:59.711Z,99468.40
2022-10-05T20:04:42.425Z,99472.60
2022-10-05T20:07:21.500Z,99467.80
2022-10-05T20:10:18.567Z,99471.00
2022-10-05T20:12:59.088Z,99468.60
2022-10-05T20:15:50.101Z,99475.80
2022-10-05T20:19:01.201Z,99470.80
2022-10-05T20:21:59.905Z,99469.40
2022-10-05T20:24:31.893Z,99469.00
2022-10-05T20:27:02.576Z,99476.20
2022-10-05T20:29:39.763Z,99471.20
2022-10-05T20:32:17.917Z,99474.00
2022-10-05T20:34:49.319Z,99474.00
2022-10-05T20:37:18.993Z,99475.00
2022-10-05T20:39:47.953Z,99472.80
2022-10-05T20:42:15.688Z,99482.20
2022-10-05T20:44:44.052Z,99478.60
2022-10-05T20:47:12.463Z,99484.40
2022-10-05T20:49:41.347Z,99480.40
2022-10-05T20:52:11.683Z,99483.40
2022-10-05T20:54:39.520Z,99482.80
2022-10-05T20:57:09.233Z,99481.60
2022-10-05T20:59:37.343Z,99481.20
2022-10-05T21:02:06.306Z,99484.40
2022-10-05T21:04:40.875Z,99482.00
2022-10-05T21:07:09.540Z,99483.80
2022-10-05T21:09:39.197Z,99483.00
2022-10-05T21:12:06.834Z,99486.00
2022-10-05T21:14:36.237Z,99480.40
2022-10-05T21:17:07.336Z,99479.20
2022-10-05T21:19:39.427Z,99484.40
2022-10-05T21:22:09.866Z,99489.80
2022-10-05T21:24:40.790Z,99487.40
2022-10-05T21:27:10.175Z,99490.00
2022-10-05T21:29:40.903Z,99484.00
2022-10-05T21:32:11.589Z,99488.80
2022-10-05T21:34:40.842Z,99487.20
2022-10-05T21:37:08.840Z,99492.20
2022-10-05T21:39:36.738Z,99495.00
2022-10-05T21:42:04.697Z,99496.60
2022-10-05T21:44:32.447Z,99501.80
2022-10-05T21:47:00.938Z,99499.60
2022-10-05T21:49:28.825Z,99505.80
2022-10-05T21:51:56.782Z,99503.20
2022-10-05T21:54:24.880Z,99505.40
2022-10-05T21:56:56.707Z,99510.00
2022-10-05T21:59:31.151Z,99503.80
2022-10-05T22:01:59.199Z,99510.40
2022-10-05T22:04:27.120Z,99513.80
2022-10-05T22:06:56.275Z,99515.00
2022-10-05T22:09:23.948Z,99511.80
2022-10-05T22:11:51.560Z,99514.00
2022-10-05T22:14:19.102Z,99514.00
2022-10-05T22:16:47.270Z,99514.60
2022-10-05T22:19:19.118Z,99517.40
2022-10-05T22:21:47.049Z,99513.40
2022-10-05T22:24:14.698Z,99515.20
2022-10-05T22:26:46.870Z,99513.00
2022-10-05T22:29:16.652Z,99517.60
2022-10-05T22:31:48.694Z,99510.20
2022-10-05T22:34:18.252Z,99511.20
2022-10-05T22:36:47.438Z,99509.80
2022-10-05T22:39:17.193Z,99506.80
2022-10-05T22:41:44.874Z,99509.40
2022-10-05T22:44:12.592Z,99515.40
2022-10-05T22:46:40.475Z,99522.80
2022-10-05T22:49:08.789Z,99522.00
2022-10-05T22:51:36.461Z,99521.80
2022-10-05T22:54:04.433Z,99524.60
2022-10-05T22:56:32.164Z,99532.00
2022-10-05T22:58:59.829Z,99532.40
2022-10-05T23:01:27.518Z,99541.60
2022-10-05T23:03:57.150Z,99542.60
2022-10-05T23:06:26.646Z,99545.00
2022-10-05T23:08:55.191Z,99546.80
2022-10-05T23:11:31.183Z,99545.80
2022-10-05T23:13:59.970Z,99545.40
2022-10-05T23:16:29.771Z,99549.40
2022-10-05T23:18:59.133Z,99556.40
2022-10-05T23:21:29.794Z,99553.20
2022-10-05T23:23:57.424Z,99566.40
2022-10-05T23:26:26.398Z,99563.00
2022-10-05T23:28:54.176Z,99569.20
2022-10-05T23:31:26.572Z,99570.00
2022-10-05T23:33:54.701Z,99577.00
2022-10-05T23:36:25.962Z,99583.20
2022-10-05T23:38:54.183Z,99584.60
2022-10-05T23:41:22.036Z,99580.60
2022-10-05T23:43:49.969Z,99590.20
2022-10-05T23:46:18.032Z,99591.40
2022-10-05T23:48:45.841Z,99590.80
2022-10-05T23:51:15.580Z,99593.40
2022-10-05T23:53:43.566Z,99599.60
2022-10-05T23:56:11.294Z,99597.00
2022-10-05T23:58:39.907Z,99598.80
